Kopaonik, Serbia
Current Conditions -  °F | °C
As of 1:00 PM on Monday 22 Dec 2014 (Local Time) from LYKV Reporting Station
Clear Clear  
Wind Chill: 46°   Ceiling: Unl
Heat Index: 46°   Visibility: 6mi
Dew Point: 27°   Wind: 0mph
Humidity: 46%   Direction: NA
Pressure: 30.33"   Gusts: NA
Location:  43.28°N, 20.8°E
Report Text: LYKV 221100Z 00000KT CAVOK 08/M03 Q1027 NOSIG
Loading
Personal Weather Stations






























Interactive Weather Map New forecast layout! Learn more

10-Day Weather Forecast

Advertisements
Track Severe Weather on mobile